KMTP/MTP METAR and TAF weather

Enter ICAO airport designator
Station Type Date Time Source
KMTP METAR 2019/10/15 07:54 UTC NOAA

KMTP 150754Z AUTO 35007KT 14/06 A3008 RMK AO1 SLP186 T01390061


Station Type Date Time Source
KMTP Decoded METAR 2019/10/15 07:54 UTC NOAA

MONTAUK AIRPORT, NY, United States (KMTP) 41-04N 071-55W 2M
Oct 15, 2019 - 03:54 AM EDT / 2019.10.15 0754 UTC
Wind: from the N (350 degrees) at 8 MPH (7 KT):0
Temperature: 57.0 F (13.9 C)
Dew Point: 43.0 F (6.1 C)
Relative Humidity: 59%
Pressure (altimeter): 30.08 in. Hg (1018 hPa)
ob: KMTP 150754Z AUTO 35007KT 14/06 A3008 RMK AO1 SLP186 T01390061
cycle: 8

Station Type Date Time Source
KMTP TAF UTC NOAA

Error!

Example: see airport list